createdAt,value
2019-01-29T00:02:12.761Z,6.23
2019-01-29T00:04:41.066Z,6.67
2019-01-29T00:07:09.345Z,6.87
2019-01-29T00:09:37.725Z,6.33
2019-01-29T00:12:05.973Z,6.00
2019-01-29T00:14:34.271Z,7.27
2019-01-29T00:17:02.524Z,6.30
2019-01-29T00:19:30.821Z,6.37
2019-01-29T00:21:59.096Z,6.80
2019-01-29T00:24:27.437Z,8.13
2019-01-29T00:26:55.705Z,8.93
2019-01-29T00:29:24.030Z,8.17
2019-01-29T00:31:52.290Z,9.00
2019-01-29T00:34:20.604Z,9.63
2019-01-29T00:36:48.911Z,8.90
2019-01-29T00:39:17.272Z,9.97
2019-01-29T00:41:45.516Z,9.00
2019-01-29T00:44:13.779Z,10.57
2019-01-29T00:46:42.081Z,10.07
2019-01-29T00:49:10.328Z,10.20
2019-01-29T00:51:38.609Z,9.13
2019-01-29T00:54:06.964Z,11.87
2019-01-29T00:56:35.331Z,10.17
2019-01-29T00:59:03.604Z,10.13
2019-01-29T01:01:31.960Z,10.97
2019-01-29T01:04:00.220Z,10.43
2019-01-29T01:06:28.519Z,10.07
2019-01-29T01:08:56.781Z,9.83
2019-01-29T01:11:25.084Z,9.20
2019-01-29T01:13:53.341Z,9.07
2019-01-29T01:16:21.665Z,8.70
2019-01-29T01:18:49.920Z,9.87
2019-01-29T01:21:18.215Z,10.40
2019-01-29T01:23:46.482Z,8.80
2019-01-29T01:26:14.784Z,9.80
2019-01-29T01:28:43.056Z,10.53
2019-01-29T01:31:11.301Z,9.80
2019-01-29T01:33:39.597Z,11.37
2019-01-29T01:36:07.922Z,9.93
2019-01-29T01:38:36.235Z,10.30
2019-01-29T01:41:04.495Z,9.50
2019-01-29T01:43:32.779Z,9.97
2019-01-29T01:46:01.066Z,9.97
2019-01-29T01:48:29.429Z,9.57
2019-01-29T01:50:57.694Z,9.33
2019-01-29T01:53:25.971Z,10.43
2019-01-29T01:55:54.311Z,8.83
2019-01-29T01:58:22.681Z,9.13
2019-01-29T02:00:50.965Z,8.53
2019-01-29T02:03:19.257Z,8.67
2019-01-29T02:05:47.526Z,7.13
2019-01-29T02:08:15.847Z,9.00
2019-01-29T02:10:44.090Z,9.67
2019-01-29T02:13:12.454Z,9.17
2019-01-29T02:15:40.735Z,9.63
2019-01-29T02:18:09.009Z,9.67
2019-01-29T02:20:37.261Z,10.40
2019-01-29T02:23:08.163Z,9.20
2019-01-29T02:25:35.555Z,9.07
2019-01-29T02:28:03.805Z,10.60
2019-01-29T02:30:32.161Z,9.63
2019-01-29T02:33:00.436Z,10.10
2019-01-29T02:35:28.800Z,9.67
2019-01-29T02:37:57.056Z,8.97
2019-01-29T02:40:27.088Z,10.63
2019-01-29T02:42:55.344Z,9.63
2019-01-29T02:45:23.874Z,10.70
2019-01-29T02:47:52.134Z,10.57
2019-01-29T02:50:20.431Z,10.83
2019-01-29T02:52:48.694Z,10.97
2019-01-29T02:55:17.036Z,12.47
2019-01-29T02:57:45.306Z,11.83
2019-01-29T03:00:26.709Z,11.37
2019-01-29T03:02:55.090Z,12.23
2019-01-29T03:05:23.390Z,14.10
2019-01-29T03:07:51.738Z,14.30
2019-01-29T03:10:25.479Z,12.20
2019-01-29T03:12:53.871Z,13.50
2019-01-29T03:15:24.947Z,12.57
2019-01-29T03:17:53.256Z,12.10
2019-01-29T03:20:21.522Z,11.47
2019-01-29T03:22:49.841Z,12.97
2019-01-29T03:25:18.099Z,11.87
2019-01-29T03:27:46.396Z,12.30
2019-01-29T03:30:17.355Z,11.87
2019-01-29T03:32:45.668Z,11.37
2019-01-29T03:35:13.930Z,11.67
2019-01-29T03:37:42.239Z,12.50
2019-01-29T03:40:25.677Z,12.50
2019-01-29T03:42:54.174Z,12.13
2019-01-29T03:45:22.474Z,12.23
2019-01-29T03:47:50.760Z,11.07
2019-01-29T03:50:22.646Z,11.83
2019-01-29T03:52:50.924Z,11.80
2019-01-29T03:55:19.329Z,10.93
2019-01-29T03:57:47.635Z,11.27
2019-01-29T04:00:24.135Z,10.67
2019-01-29T04:02:52.432Z,11.87
2019-01-29T04:05:20.711Z,11.93
2019-01-29T04:07:49.002Z,11.50
2019-01-29T04:10:17.828Z,11.63
2019-01-29T04:12:46.160Z,11.50
2019-01-29T04:15:19.070Z,10.90
2019-01-29T04:17:47.330Z,11.10
2019-01-29T04:20:17.470Z,10.63
2019-01-29T04:22:46.116Z,9.93
2019-01-29T04:25:14.525Z,10.53
2019-01-29T04:27:42.775Z,10.47
2019-01-29T04:30:15.797Z,10.17
2019-01-29T04:32:44.128Z,9.77
2019-01-29T04:35:12.421Z,10.33
2019-01-29T04:37:40.693Z,9.93
2019-01-29T04:40:11.632Z,10.30
2019-01-29T04:42:39.890Z,9.87
2019-01-29T04:45:11.085Z,10.60
2019-01-29T04:47:39.365Z,10.90
2019-01-29T04:50:13.200Z,10.23
2019-01-29T04:52:41.491Z,10.43
2019-01-29T04:55:12.072Z,11.47
2019-01-29T04:57:40.366Z,10.60
2019-01-29T05:00:14.044Z,11.47
2019-01-29T05:02:42.340Z,10.83
2019-01-29T05:05:11.050Z,10.77
2019-01-29T05:07:39.346Z,10.90
2019-01-29T05:10:15.404Z,11.13
2019-01-29T05:12:43.688Z,10.70
2019-01-29T05:15:13.901Z,11.10
2019-01-29T05:17:42.182Z,11.63
2019-01-29T05:20:12.595Z,11.30
2019-01-29T05:22:40.866Z,9.87
2019-01-29T05:25:10.463Z,11.73
2019-01-29T05:27:38.735Z,9.93
2019-01-29T05:30:15.430Z,10.27
2019-01-29T05:32:43.737Z,10.33
2019-01-29T05:35:11.996Z,10.17
2019-01-29T05:37:40.281Z,11.90
2019-01-29T05:40:14.477Z,12.47
2019-01-29T05:42:42.788Z,11.83
2019-01-29T05:45:13.106Z,11.40
2019-01-29T05:47:41.416Z,10.80
2019-01-29T05:50:12.234Z,11.60
2019-01-29T05:52:40.496Z,9.53
2019-01-29T05:55:09.944Z,10.70
2019-01-29T05:57:38.185Z,10.87
2019-01-29T06:00:09.719Z,10.40
2019-01-29T06:02:37.966Z,11.53
2019-01-29T06:05:09.015Z,11.80
2019-01-29T06:07:37.275Z,12.23
2019-01-29T06:10:08.895Z,11.97
2019-01-29T06:12:37.161Z,11.87
2019-01-29T06:15:11.552Z,12.67
2019-01-29T06:17:39.834Z,13.17
2019-01-29T06:20:11.561Z,12.33
2019-01-29T06:22:39.838Z,13.07
2019-01-29T06:25:08.111Z,12.73
2019-01-29T06:27:36.394Z,13.03
2019-01-29T06:30:08.174Z,14.00
2019-01-29T06:32:36.461Z,14.20
2019-01-29T06:35:07.361Z,13.40
2019-01-29T06:37:35.626Z,13.93
2019-01-29T06:40:05.540Z,12.60
2019-01-29T06:42:33.810Z,13.03
2019-01-29T06:45:02.100Z,12.80
2019-01-29T06:47:30.464Z,13.10
2019-01-29T06:49:58.726Z,14.43
2019-01-29T06:52:27.025Z,12.73
2019-01-29T06:54:55.289Z,11.67
2019-01-29T06:57:23.590Z,11.03
2019-01-29T06:59:51.841Z,11.67
2019-01-29T07:02:20.142Z,12.33
2019-01-29T07:04:48.449Z,10.50
2019-01-29T07:07:16.750Z,10.67
2019-01-29T07:09:45.000Z,10.83
2019-01-29T07:12:13.302Z,11.27
2019-01-29T07:14:41.539Z,12.03
2019-01-29T07:17:14.357Z,10.80
2019-01-29T07:19:42.695Z,11.30
2019-01-29T07:22:11.061Z,11.87
2019-01-29T07:24:42.910Z,13.10
2019-01-29T07:27:09.345Z,13.13
2019-01-29T07:29:37.621Z,14.00
2019-01-29T07:32:05.990Z,14.73
2019-01-29T07:34:34.246Z,13.57
2019-01-29T07:37:02.540Z,13.23
2019-01-29T07:39:30.857Z,12.77
2019-01-29T07:41:59.254Z,12.70
2019-01-29T07:44:27.505Z,11.23
2019-01-29T07:46:55.805Z,11.43
2019-01-29T07:49:24.217Z,11.13
2019-01-29T07:51:52.500Z,10.00
2019-01-29T07:54:20.854Z,8.60
2019-01-29T07:56:49.130Z,8.43
2019-01-29T07:59:17.415Z,8.07
2019-01-29T08:01:45.802Z,7.77
2019-01-29T08:04:14.077Z,7.13
2019-01-29T08:06:42.339Z,7.27
2019-01-29T08:09:10.696Z,7.23
2019-01-29T08:11:38.951Z,6.50
2019-01-29T08:14:07.504Z,8.00
2019-01-29T08:16:35.749Z,7.27
2019-01-29T08:19:04.114Z,7.70
2019-01-29T08:21:32.383Z,7.97
2019-01-29T08:24:00.636Z,7.00
2019-01-29T08:26:28.925Z,7.47
2019-01-29T08:28:57.199Z,9.10
2019-01-29T08:31:25.480Z,9.50
2019-01-29T08:33:53.756Z,8.93
2019-01-29T08:36:22.099Z,10.73
2019-01-29T08:38:50.354Z,8.73
2019-01-29T08:41:18.664Z,7.23
2019-01-29T08:43:46.928Z,7.13
2019-01-29T08:46:15.296Z,7.80
2019-01-29T08:48:43.604Z,6.97
2019-01-29T08:51:11.964Z,5.43
2019-01-29T08:53:40.240Z,6.40
2019-01-29T08:56:08.530Z,6.10
2019-01-29T08:58:36.772Z,5.53
2019-01-29T09:01:05.042Z,5.70
2019-01-29T09:03:33.316Z,5.07
2019-01-29T09:06:01.577Z,5.90
2019-01-29T09:08:29.836Z,5.97
2019-01-29T09:10:58.141Z,5.67
2019-01-29T09:13:26.405Z,6.10
2019-01-29T09:15:54.705Z,6.03
2019-01-29T09:18:23.041Z,6.30
2019-01-29T09:20:51.400Z,7.07
2019-01-29T09:23:19.680Z,7.60
2019-01-29T09:25:47.928Z,6.17
2019-01-29T09:28:18.544Z,5.10
2019-01-29T09:30:46.196Z,5.40
2019-01-29T09:33:14.493Z,5.83
2019-01-29T09:35:42.813Z,6.13
2019-01-29T09:38:11.111Z,5.97
2019-01-29T09:40:39.360Z,6.43
2019-01-29T09:43:07.643Z,7.00
2019-01-29T09:45:35.906Z,6.23
2019-01-29T09:48:04.222Z,6.13
2019-01-29T09:50:32.481Z,5.40
2019-01-29T09:53:00.815Z,5.83
2019-01-29T09:55:30.041Z,5.83
2019-01-29T09:57:58.466Z,6.07
2019-01-29T10:00:29.217Z,7.07
2019-01-29T10:02:57.500Z,6.20
2019-01-29T10:05:25.862Z,5.23
2019-01-29T10:07:54.130Z,5.30
2019-01-29T10:10:22.426Z,5.37
2019-01-29T10:12:50.704Z,4.77
2019-01-29T10:15:22.186Z,4.40
2019-01-29T10:17:50.720Z,4.30
2019-01-29T10:20:19.041Z,4.00
2019-01-29T10:22:47.326Z,4.17
2019-01-29T10:25:15.664Z,3.90
2019-01-29T10:27:43.959Z,4.60
2019-01-29T10:30:14.046Z,4.60
2019-01-29T10:32:42.415Z,4.97
2019-01-29T10:35:13.691Z,4.10
2019-01-29T10:37:41.970Z,5.10
2019-01-29T10:40:18.675Z,4.13
2019-01-29T10:42:46.974Z,4.03
2019-01-29T10:45:17.179Z,5.13
2019-01-29T10:47:45.451Z,4.80
2019-01-29T10:50:22.667Z,8.10
2019-01-29T10:52:51.200Z,4.47
2019-01-29T10:55:19.576Z,4.87
2019-01-29T10:57:48.076Z,5.47
2019-01-29T11:00:18.743Z,5.10
2019-01-29T11:02:47.081Z,4.90
2019-01-29T11:05:17.490Z,4.63
2019-01-29T11:07:45.781Z,5.37
2019-01-29T11:10:16.070Z,4.97
2019-01-29T11:12:44.364Z,4.83
2019-01-29T11:15:15.635Z,6.07
2019-01-29T11:17:43.925Z,4.20
2019-01-29T11:20:14.728Z,4.80
2019-01-29T11:22:43.020Z,4.53
2019-01-29T11:25:14.606Z,4.50
2019-01-29T11:27:42.874Z,5.77
2019-01-29T11:30:14.511Z,4.87
2019-01-29T11:32:42.814Z,4.90
2019-01-29T11:35:11.445Z,5.20
2019-01-29T11:37:39.755Z,4.30
2019-01-29T11:40:11.291Z,4.80
2019-01-29T11:42:39.582Z,5.57
2019-01-29T11:45:13.857Z,7.03
2019-01-29T11:47:42.144Z,5.60
2019-01-29T11:50:10.765Z,7.00
2019-01-29T11:52:39.053Z,7.17
2019-01-29T11:55:09.570Z,6.70
2019-01-29T11:57:37.890Z,8.13
2019-01-29T12:00:17.047Z,7.60
2019-01-29T12:02:45.323Z,6.97
2019-01-29T12:05:13.764Z,7.43
2019-01-29T12:07:42.055Z,6.97
2019-01-29T12:10:11.485Z,7.03
2019-01-29T12:12:39.792Z,8.03
2019-01-29T12:15:14.386Z,6.90
2019-01-29T12:17:42.631Z,6.93
2019-01-29T12:20:16.260Z,6.60
2019-01-29T12:22:44.515Z,8.30
2019-01-29T12:25:12.807Z,8.50
2019-01-29T12:27:41.159Z,7.93
2019-01-29T12:30:26.194Z,7.83
2019-01-29T12:32:54.556Z,8.50
2019-01-29T12:35:23.851Z,7.83
2019-01-29T12:37:52.177Z,7.63
2019-01-29T12:40:20.451Z,8.87
2019-01-29T12:42:48.780Z,7.80
2019-01-29T12:45:18.395Z,8.73
2019-01-29T12:47:47.018Z,8.17
2019-01-29T12:50:21.499Z,8.40
2019-01-29T12:52:51.559Z,8.50
2019-01-29T12:55:19.873Z,8.70
2019-01-29T12:57:48.152Z,7.93
2019-01-29T13:00:20.316Z,6.30
2019-01-29T13:02:48.623Z,5.40
2019-01-29T13:05:17.110Z,7.37
2019-01-29T13:07:45.430Z,6.77
2019-01-29T13:10:21.463Z,5.33
2019-01-29T13:12:49.866Z,6.97
2019-01-29T13:15:26.866Z,6.40
2019-01-29T13:17:55.221Z,6.73
2019-01-29T13:20:23.541Z,5.93
2019-01-29T13:22:51.917Z,7.60
2019-01-29T13:25:20.189Z,7.30
2019-01-29T13:27:48.486Z,6.03
2019-01-29T13:30:25.556Z,5.00
2019-01-29T13:32:53.907Z,4.30
2019-01-29T13:35:23.914Z,7.97
2019-01-29T13:37:52.286Z,5.10
2019-01-29T13:40:20.581Z,5.50
2019-01-29T13:42:49.025Z,11.60
2019-01-29T13:45:17.456Z,4.67
2019-01-29T13:47:45.707Z,7.37
2019-01-29T13:50:23.309Z,4.87
2019-01-29T13:52:51.647Z,4.07
2019-01-29T13:55:20.075Z,4.20
2019-01-29T13:57:48.422Z,3.60
2019-01-29T14:00:36.566Z,3.10
2019-01-29T14:03:05.251Z,4.43
2019-01-29T14:05:33.614Z,3.27
2019-01-29T14:08:01.892Z,3.50
2019-01-29T14:10:30.266Z,3.10
2019-01-29T14:12:58.547Z,3.10
2019-01-29T14:15:34.942Z,2.70
2019-01-29T14:18:03.214Z,2.97
2019-01-29T14:20:31.511Z,2.77
2019-01-29T14:22:59.770Z,2.77
2019-01-29T14:25:28.054Z,2.60
2019-01-29T14:27:56.314Z,2.87
2019-01-29T14:30:27.083Z,3.03
2019-01-29T14:32:55.446Z,3.53
2019-01-29T14:35:23.776Z,2.20
2019-01-29T14:38:00.848Z,2.37
2019-01-29T14:40:31.276Z,2.10
2019-01-29T14:42:59.561Z,2.63
2019-01-29T14:45:31.887Z,2.70
2019-01-29T14:48:00.239Z,2.53
2019-01-29T14:50:30.152Z,3.27
2019-01-29T14:52:58.448Z,2.93
2019-01-29T14:55:26.785Z,2.50
2019-01-29T14:57:55.119Z,2.93
2019-01-29T15:00:31.378Z,3.40
2019-01-29T15:02:59.751Z,2.90
2019-01-29T15:05:28.148Z,2.63
2019-01-29T15:07:56.564Z,2.73
2019-01-29T15:10:26.954Z,5.10
2019-01-29T15:12:55.326Z,2.97
2019-01-29T15:15:26.209Z,2.90
2019-01-29T15:18:02.215Z,4.77
2019-01-29T15:20:30.556Z,3.63
2019-01-29T15:22:58.845Z,4.10
2019-01-29T15:25:27.109Z,2.73
2019-01-29T15:27:55.427Z,6.00
2019-01-29T15:30:28.006Z,3.10
2019-01-29T15:32:56.528Z,2.67
2019-01-29T15:35:24.785Z,2.87
2019-01-29T15:37:54.620Z,3.83
2019-01-29T15:40:23.279Z,3.70
2019-01-29T15:42:51.795Z,2.60
2019-01-29T15:45:21.932Z,2.10
2019-01-29T15:47:50.327Z,3.20
2019-01-29T15:50:21.097Z,2.67
2019-01-29T15:52:49.421Z,4.57
2019-01-29T15:55:18.038Z,4.90
2019-01-29T15:57:47.190Z,6.20
2019-01-29T16:00:30.155Z,4.30
2019-01-29T16:02:58.578Z,4.50
2019-01-29T16:05:37.687Z,5.67
2019-01-29T16:08:08.483Z,4.00
2019-01-29T16:10:46.282Z,2.87
2019-01-29T16:13:14.616Z,3.50
2019-01-29T16:15:43.129Z,4.60
2019-01-29T16:18:12.130Z,6.13
2019-01-29T16:20:40.426Z,4.57
2019-01-29T16:23:08.730Z,6.50
2019-01-29T16:25:37.666Z,6.67
2019-01-29T16:28:05.987Z,5.30
2019-01-29T16:30:36.022Z,6.20
2019-01-29T16:33:04.731Z,6.17
2019-01-29T16:35:34.741Z,6.00
2019-01-29T16:38:03.174Z,5.80
2019-01-29T16:40:33.735Z,6.70
2019-01-29T16:43:02.032Z,5.80
2019-01-29T16:45:34.980Z,5.87
2019-01-29T16:48:03.593Z,6.50
2019-01-29T16:50:31.901Z,6.43
2019-01-29T16:53:00.160Z,6.43
2019-01-29T16:55:28.434Z,5.47
2019-01-29T16:57:56.741Z,19.80
2019-01-29T17:00:29.832Z,13.60
2019-01-29T17:02:58.156Z,12.03
2019-01-29T17:05:27.434Z,12.33
2019-01-29T17:07:55.720Z,8.90
2019-01-29T17:10:34.640Z,11.07
2019-01-29T17:13:02.988Z,12.27
2019-01-29T17:15:35.474Z,11.10
2019-01-29T17:18:04.151Z,10.57
2019-01-29T17:20:35.234Z,10.87
2019-01-29T17:23:04.182Z,10.60
2019-01-29T17:25:32.447Z,12.17
2019-01-29T17:28:00.765Z,7.43
2019-01-29T17:30:31.461Z,7.20
2019-01-29T17:32:59.729Z,6.23
2019-01-29T17:35:28.071Z,5.20
2019-01-29T17:37:56.347Z,5.47
2019-01-29T17:40:24.634Z,5.13
2019-01-29T17:42:53.006Z,5.30
2019-01-29T17:45:30.211Z,6.40
2019-01-29T17:48:09.752Z,6.70
2019-01-29T17:50:42.065Z,7.37
2019-01-29T17:53:10.340Z,7.33
2019-01-29T17:55:39.650Z,6.87
2019-01-29T17:58:08.695Z,8.47
2019-01-29T18:00:38.584Z,8.07
2019-01-29T18:03:06.949Z,9.77
2019-01-29T18:05:35.272Z,8.97
2019-01-29T18:08:03.610Z,9.53
2019-01-29T18:10:31.979Z,6.37
2019-01-29T18:13:00.322Z,6.90
2019-01-29T18:15:29.652Z,10.00
2019-01-29T18:17:58.012Z,9.73
2019-01-29T18:20:26.377Z,9.27
2019-01-29T18:22:54.649Z,8.97
2019-01-29T18:25:22.970Z,9.07
2019-01-29T18:28:00.626Z,9.83
2019-01-29T18:30:23.685Z,8.03
2019-01-29T18:32:52.051Z,9.07
2019-01-29T18:35:20.355Z,9.37
2019-01-29T18:37:48.607Z,8.97
2019-01-29T18:40:22.461Z,8.97
2019-01-29T18:42:50.702Z,9.90
2019-01-29T18:45:19.040Z,8.33
2019-01-29T18:47:47.323Z,6.33
2019-01-29T18:50:17.861Z,7.00
2019-01-29T18:52:46.125Z,8.00
2019-01-29T18:55:14.426Z,12.27
2019-01-29T18:57:42.721Z,12.03
2019-01-29T19:00:23.221Z,11.37
2019-01-29T19:02:51.495Z,10.63
2019-01-29T19:05:21.223Z,10.07
2019-01-29T19:07:49.601Z,11.17
2019-01-29T19:10:19.445Z,12.70
2019-01-29T19:12:49.792Z,12.63
2019-01-29T19:15:23.595Z,15.03
2019-01-29T19:17:51.951Z,13.93
2019-01-29T19:20:39.137Z,13.90
2019-01-29T19:23:20.161Z,11.93
2019-01-29T19:26:00.961Z,15.47
2019-01-29T19:28:41.840Z,12.83
2019-01-29T19:34:21.722Z,13.07
2019-01-29T19:37:03.172Z,14.57
2019-01-29T19:39:44.358Z,13.00
2019-01-29T19:42:27.661Z,13.17
2019-01-29T19:45:33.399Z,11.73
2019-01-29T19:48:20.880Z,8.97
2019-01-29T19:51:08.658Z,7.70
2019-01-29T19:53:56.396Z,12.13
2019-01-29T19:56:44.188Z,9.97
2019-01-29T19:59:31.900Z,13.00
2019-01-29T20:02:19.680Z,18.63
2019-01-29T20:05:28.199Z,19.07
2019-01-29T20:08:16.002Z,12.13
2019-01-29T20:11:03.783Z,19.57
2019-01-29T20:13:51.589Z,17.43
2019-01-29T20:16:39.351Z,15.37
2019-01-29T20:19:27.066Z,18.60
2019-01-29T20:22:07.681Z,16.70
2019-01-29T20:24:48.524Z,14.80
2019-01-29T20:27:28.934Z,14.10
2019-01-29T20:30:09.350Z,13.03
2019-01-29T20:32:53.475Z,13.37
2019-01-29T20:35:33.230Z,14.03
2019-01-29T20:38:14.021Z,13.60
2019-01-29T20:40:54.431Z,13.87
2019-01-29T20:43:35.294Z,15.40
2019-01-29T20:46:15.894Z,14.83
2019-01-29T20:48:56.187Z,12.97
2019-01-29T20:51:36.822Z,13.07
2019-01-29T20:54:17.792Z,13.03
2019-01-29T20:56:58.292Z,14.73
2019-01-29T20:59:38.672Z,15.20
2019-01-29T21:02:19.638Z,12.43
2019-01-29T21:05:00.475Z,11.20
2019-01-29T21:07:41.212Z,12.67
2019-01-29T21:10:21.877Z,12.37
2019-01-29T21:13:02.335Z,12.30
2019-01-29T21:15:42.955Z,11.20
2019-01-29T21:18:23.436Z,11.17
2019-01-29T21:21:03.825Z,11.80
2019-01-29T21:23:44.405Z,11.77
2019-01-29T21:26:25.275Z,12.37
2019-01-29T21:29:05.870Z,14.27
2019-01-29T21:31:46.476Z,14.43
2019-01-29T21:34:27.018Z,12.10
2019-01-29T21:37:08.139Z,13.77
2019-01-29T21:39:48.688Z,12.20
2019-01-29T21:42:29.507Z,12.90
2019-01-29T21:45:10.380Z,13.47
2019-01-29T21:47:51.057Z,12.30
2019-01-29T21:50:32.113Z,13.37
2019-01-29T21:53:12.572Z,12.73
2019-01-29T21:55:53.438Z,12.17
2019-01-29T21:58:34.388Z,12.37
2019-01-29T22:01:15.295Z,10.87
2019-01-29T22:03:55.991Z,11.03
2019-01-29T22:06:36.480Z,12.90
2019-01-29T22:09:17.377Z,12.17
2019-01-29T22:11:58.103Z,13.07
2019-01-29T22:14:38.717Z,12.73
2019-01-29T22:17:19.754Z,13.63
2019-01-29T22:20:00.391Z,12.43
2019-01-29T22:22:41.305Z,12.60
2019-01-29T22:25:22.322Z,14.50
2019-01-29T22:28:02.975Z,12.47
2019-01-29T22:30:43.826Z,13.87
2019-01-29T22:33:24.651Z,15.53
2019-01-29T22:36:05.436Z,14.60
2019-01-29T22:38:46.215Z,12.23
2019-01-29T22:41:26.676Z,13.73
2019-01-29T22:44:07.270Z,12.80
2019-01-29T22:46:48.215Z,11.17
2019-01-29T22:49:29.020Z,13.27
2019-01-29T22:52:09.727Z,12.47
2019-01-29T22:54:50.527Z,12.43
2019-01-29T22:57:31.450Z,13.87
2019-01-29T23:00:13.643Z,12.90
2019-01-29T23:02:54.077Z,13.87
2019-01-29T23:05:34.862Z,10.90
2019-01-29T23:08:15.540Z,10.33
2019-01-29T23:10:57.470Z,10.40
2019-01-29T23:13:36.251Z,9.63
2019-01-29T23:16:24.013Z,10.13
2019-01-29T23:19:11.747Z,9.93
2019-01-29T23:21:52.052Z,6.50
2019-01-29T23:24:32.850Z,6.53
2019-01-29T23:27:13.451Z,4.60
2019-01-29T23:29:54.242Z,6.03
2019-01-29T23:32:34.806Z,5.17
2019-01-29T23:35:15.621Z,6.00
2019-01-29T23:37:56.222Z,3.77
2019-01-29T23:40:37.237Z,5.43
2019-01-29T23:43:17.944Z,4.47
2019-01-29T23:45:58.922Z,4.17
2019-01-29T23:48:39.546Z,5.17
2019-01-29T23:51:20.213Z,5.70
2019-01-29T23:54:01.206Z,5.43
2019-01-29T23:56:42.147Z,4.60
2019-01-29T23:59:22.945Z,4.30
